Time;durP1;ratioP1;P1;durP2;ratioP2;P2;SDS_P1;SDS_P2;PMS_P1;PMS_P2;Temp;Humidity;BMP_temperature;BMP_pressure;BME280_temperature;BME280_humidity;BME280_pressure;Samples;Min_cycle;Max_cycle;Signal;HPM_P1;HPM_P2
2022/10/03 00:00:37;;;;;;;8.75;5.45;;;;;;;10.94;100.00;96901.94;5123733;28;20039;-82
2022/10/03 00:03:29;;;;;;;11.68;5.43;;;;;;;10.87;100.00;96901.56;5141080;27;20050;-81
2022/10/03 00:06:09;;;;;;;7.80;5.18;;;;;;;10.89;100.00;96904.78;5141906;27;20043;-82
2022/10/03 00:09:04;;;;;;;6.72;4.57;;;;;;;10.89;100.00;96912.97;5123409;28;20043;-81
2022/10/03 00:11:40;;;;;;;6.68;4.32;;;;;;;10.90;100.00;96912.66;5138887;28;20065;-80
2022/10/03 00:14:16;;;;;;;5.15;3.92;;;;;;;10.90;100.00;96923.53;5141373;27;20047;-79
2022/10/03 00:16:52;;;;;;;7.68;4.47;;;;;;;10.88;100.00;96919.53;5142171;27;20053;-81
2022/10/03 00:19:29;;;;;;;5.45;4.10;;;;;;;10.86;100.00;96917.13;5130280;27;20053;-81
2022/10/03 00:22:06;;;;;;;6.18;4.20;;;;;;;10.80;100.00;96923.75;5140918;28;20496;-80
2022/10/03 00:24:46;;;;;;;7.47;4.18;;;;;;;10.74;100.00;96929.63;5145034;28;20039;-82
2022/10/03 00:27:26;;;;;;;6.78;4.43;;;;;;;10.70;100.00;96921.25;5120512;23;20551;-82
2022/10/03 00:30:05;;;;;;;7.10;4.32;;;;;;;10.67;100.00;96930.06;5040702;28;20053;-82
2022/10/03 00:33:02;;;;;;;7.45;4.82;;;;;;;10.62;100.00;96928.25;5061287;28;20041;-82
2022/10/03 00:35:49;;;;;;;6.32;4.22;;;;;;;10.60;100.00;96935.91;5065799;28;20072;-83
2022/10/03 00:38:33;;;;;;;8.02;4.45;;;;;;;10.54;100.00;96941.75;5067669;28;20051;-82
2022/10/03 00:41:21;;;;;;;6.85;4.60;;;;;;;10.51;100.00;96953.25;5065134;28;20527;-81
2022/10/03 00:44:15;;;;;;;5.95;4.20;;;;;;;10.47;100.00;96947.59;5065192;28;20480;-81
2022/10/03 00:47:05;;;;;;;6.82;4.07;;;;;;;10.47;100.00;96958.50;5044707;28;20547;-83
2022/10/03 00:50:08;;;;;;;5.85;4.07;;;;;;;10.47;100.00;96955.78;5045627;28;20058;-81
2022/10/03 00:52:53;;;;;;;5.83;4.40;;;;;;;10.44;100.00;96948.22;5036354;28;20037;-81
2022/10/03 00:55:30;;;;;;;7.00;4.53;;;;;;;10.39;100.00;96951.03;5026075;28;20045;-81
2022/10/03 00:58:27;;;;;;;9.95;4.65;;;;;;;10.33;100.00;96955.75;5042586;28;20505;-81
2022/10/03 01:01:06;;;;;;;7.13;5.00;;;;;;;10.27;100.00;96948.78;5043283;28;20055;-80
2022/10/03 01:03:48;;;;;;;6.22;4.60;;;;;;;10.25;100.00;96955.66;5046138;28;20048;-82
2022/10/03 01:06:27;;;;;;;9.15;5.47;;;;;;;10.16;100.00;96948.16;5043091;28;20060;-81
2022/10/03 01:09:16;;;;;;;8.43;5.63;;;;;;;10.10;100.00;96943.13;5041313;28;20049;-81
2022/10/03 01:12:03;;;;;;;6.95;5.30;;;;;;;10.11;100.00;96948.25;5043364;28;20037;-83
2022/10/03 01:14:56;;;;;;;7.47;5.60;;;;;;;10.08;100.00;96946.16;5045794;28;20048;-82
2022/10/03 01:17:34;;;;;;;11.83;6.20;;;;;;;10.01;100.00;96953.88;5043860;28;20049;-82
2022/10/03 01:20:28;;;;;;;9.65;5.93;;;;;;;10.01;100.00;96956.59;5048132;28;20045;-82
2022/10/03 01:23:25;;;;;;;;;;;;;;;9.94;100.00;96958.91;5045972;28;20072;-83
2022/10/03 01:25:59;;;;;;;7.72;5.72;;;;;;;9.94;100.00;96959.72;4987278;28;19922;-83
2022/10/03 01:31:39;;;;;;;10.18;7.20;;;;;;;9.78;100.00;96957.56;5046455;28;20056;-83
2022/10/03 01:34:16;;;;;;;13.73;7.30;;;;;;;9.79;100.00;96954.53;5010876;28;20100;-83
2022/10/03 01:36:52;;;;;;;14.45;7.50;;;;;;;9.81;100.00;96962.38;5028118;28;20042;-83
2022/10/03 01:39:27;;;;;;;12.38;8.02;;;;;;;9.80;100.00;96952.63;5027465;28;20050;-83
2022/10/03 01:41:59;;;;;;;10.73;6.55;;;;;;;9.82;100.00;96953.94;5026268;28;20103;-83
2022/10/03 01:44:39;;;;;;;11.55;7.75;;;;;;;9.85;100.00;96957.97;5027799;28;20037;-83
2022/10/03 01:47:19;;;;;;;11.70;7.60;;;;;;;9.84;100.00;96965.31;5042391;28;20061;-83
2022/10/03 01:49:54;;;;;;;13.95;7.45;;;;;;;9.80;100.00;96974.38;5029066;28;20053;-82
2022/10/03 01:52:31;;;;;;;13.23;7.43;;;;;;;9.79;100.00;96975.47;5041705;28;20053;-81
2022/10/03 01:55:10;;;;;;;14.32;7.43;;;;;;;9.83;100.00;96979.22;5045109;28;20056;-81
2022/10/03 01:57:45;;;;;;;11.13;6.95;;;;;;;9.80;100.00;96977.09;5030666;28;20056;-80
2022/10/03 02:00:16;;;;;;;11.93;7.40;;;;;;;9.79;100.00;96987.16;5052388;28;20042;-81
2022/10/03 02:02:50;;;;;;;17.08;7.85;;;;;;;9.77;100.00;96994.03;5022044;28;20049;-82
2022/10/03 02:05:24;;;;;;;14.40;6.90;;;;;;;9.74;100.00;97000.03;5023919;28;20052;-82
2022/10/03 02:08:00;;;;;;;12.30;7.60;;;;;;;9.73;100.00;97006.59;5021936;28;20100;-82
2022/10/03 02:10:38;;;;;;;17.70;8.15;;;;;;;9.64;100.00;97001.00;5022877;28;20052;-82
2022/10/03 02:13:19;;;;;;;16.30;7.80;;;;;;;9.61;100.00;96999.72;5023993;28;20045;-81
2022/10/03 02:15:56;;;;;;;12.15;7.95;;;;;;;9.59;100.00;96993.72;5026866;28;20105;-82
2022/10/03 02:18:35;;;;;;;15.98;9.25;;;;;;;9.51;100.00;96999.84;5026558;28;20049;-82
2022/10/03 02:21:10;;;;;;;17.27;8.98;;;;;;;9.50;100.00;96998.25;5037293;28;20246;-81
2022/10/03 02:23:44;;;;;;;17.00;9.65;;;;;;;9.51;100.00;97002.56;5044571;28;20065;-81
2022/10/03 02:26:56;;;;;;;13.95;8.70;;;;;;;9.50;100.00;97005.56;5043192;28;20108;-83
2022/10/03 02:29:44;;;;;;;17.08;9.73;;;;;;;9.35;100.00;97010.16;5045362;28;20041;-82
2022/10/03 02:32:38;;;;;;;14.30;8.85;;;;;;;9.41;100.00;97006.25;5045792;28;20045;-81
2022/10/03 02:35:28;;;;;;;19.35;9.98;;;;;;;9.32;100.00;97004.47;5046434;28;20065;-82
2022/10/03 02:38:14;;;;;;;15.68;9.55;;;;;;;9.33;100.00;97009.63;5048230;28;20113;-82
2022/10/03 02:40:56;;;;;;;19.45;9.98;;;;;;;9.08;100.00;97010.81;5028998;28;20041;-83
2022/10/03 02:43:54;;;;;;;20.70;9.45;;;;;;;9.24;100.00;97010.56;5044249;28;20099;-81
2022/10/03 02:47:01;;;;;;;14.10;9.60;;;;;;;9.20;100.00;97010.38;5044073;28;20049;-81
2022/10/03 02:49:57;;;;;;;23.70;10.35;;;;;;;9.28;100.00;97009.69;5045998;28;20041;-82
2022/10/03 02:53:09;;;;;;;16.58;9.95;;;;;;;9.35;100.00;97012.88;5045141;28;20052;-81
2022/10/03 02:56:21;;;;;;;18.02;10.25;;;;;;;9.15;100.00;97011.25;5043029;28;20045;-83
2022/10/03 02:59:25;;;;;;;19.88;10.60;;;;;;;9.23;100.00;97006.25;5027493;28;20037;-81
2022/10/03 03:02:16;;;;;;;21.83;10.43;;;;;;;9.18;100.00;97014.47;5011241;28;20065;-83
2022/10/03 03:05:11;;;;;;;18.40;10.43;;;;;;;9.20;100.00;97021.22;5042534;28;20046;-84
2022/10/03 03:08:09;;;;;;;18.45;10.25;;;;;;;9.25;100.00;97020.34;5044555;28;20045;-83
2022/10/03 03:11:17;;;;;;;20.05;11.45;;;;;;;9.24;100.00;97018.72;5046936;28;20048;-83
2022/10/03 03:14:27;;;;;;;16.20;10.50;;;;;;;9.22;100.00;97019.03;5032607;28;20069;-82
2022/10/03 03:17:22;;;;;;;19.95;11.23;;;;;;;9.24;100.00;97013.28;5045543;28;20041;-85
2022/10/03 03:20:20;;;;;;;21.65;11.38;;;;;;;9.15;100.00;97016.66;5035674;28;20049;-83
2022/10/03 03:23:09;;;;;;;23.83;11.07;;;;;;;9.22;100.00;97021.75;5045603;28;20041;-81
2022/10/03 03:25:51;;;;;;;21.65;11.60;;;;;;;9.26;100.00;97021.97;5036432;28;20047;-83
2022/10/03 03:28:33;;;;;;;23.92;12.55;;;;;;;9.20;100.00;97028.59;5051129;28;20051;-82
2022/10/03 03:31:10;;;;;;;25.92;12.63;;;;;;;9.18;100.00;97025.31;5035322;28;20091;-81
2022/10/03 03:33:46;;;;;;;22.88;13.13;;;;;;;9.23;100.00;97033.41;5041227;28;20042;-81
2022/10/03 03:36:24;;;;;;;20.02;12.20;;;;;;;9.27;100.00;97037.16;5038575;28;20160;-83
2022/10/03 03:39:00;;;;;;;27.75;13.10;;;;;;;9.31;100.00;97049.88;5042535;28;20105;-83
2022/10/03 03:41:50;;;;;;;22.92;11.48;;;;;;;9.38;100.00;97041.34;5016879;28;20041;-83
2022/10/03 03:44:46;;;;;;;22.05;12.80;;;;;;;9.33;100.00;97038.72;5020634;28;20077;-83
2022/10/03 03:47:30;;;;;;;24.67;13.32;;;;;;;9.12;100.00;97040.91;5022442;28;20060;-82
2022/10/03 03:50:19;;;;;;;22.88;12.07;;;;;;;9.26;100.00;97036.38;5024019;28;20123;-82
2022/10/03 03:53:05;;;;;;;26.42;13.45;;;;;;;9.27;100.00;97048.03;5037836;28;20048;-82
2022/10/03 03:56:05;;;;;;;23.23;12.40;;;;;;;9.32;100.00;97047.97;5041358;28;20045;-83
2022/10/03 03:58:38;;;;;;;26.02;13.25;;;;;;;9.29;100.00;97049.38;5042650;28;20049;-82
2022/10/03 04:01:24;;;;;;;26.48;12.80;;;;;;;9.46;100.00;97053.50;5042743;28;20069;-83
2022/10/03 04:04:04;;;;;;;21.40;11.93;;;;;;;9.47;100.00;97055.91;5043252;28;20072;-85
2022/10/03 04:06:45;;;;;;;18.95;11.75;;;;;;;9.51;100.00;97054.22;5042190;28;20052;-84
2022/10/03 04:09:48;;;;;;;20.80;12.38;;;;;;;9.47;100.00;97064.06;5044389;28;20125;-82
2022/10/03 04:12:28;;;;;;;20.10;11.07;;;;;;;9.49;100.00;97064.56;5045035;28;20049;-82
2022/10/03 04:15:21;;;;;;;18.60;10.63;;;;;;;9.53;100.00;97076.50;5049281;28;20546;-82
2022/10/03 04:21:08;;;;;;;19.83;10.75;;;;;;;9.56;100.00;97069.66;5048962;28;20052;-83
2022/10/03 04:24:02;;;;;;;20.42;10.85;;;;;;;9.57;100.00;97061.22;5047230;28;20076;-83
2022/10/03 04:26:45;;;;;;;16.65;11.38;;;;;;;9.58;100.00;97068.25;5022523;28;20420;-84
2022/10/03 04:29:50;;;;;;;19.17;10.77;;;;;;;9.49;100.00;97070.00;5027633;28;20053;-83
2022/10/03 04:32:37;;;;;;;24.38;10.02;;;;;;;9.53;100.00;97065.63;4997084;28;20285;-82
2022/10/03 04:35:24;;;;;;;17.83;9.60;;;;;;;9.55;100.00;97068.88;5026667;28;20080;-83
2022/10/03 04:38:06;;;;;;;18.48;10.38;;;;;;;9.45;100.00;97071.72;5026381;28;20045;-82
2022/10/03 04:40:46;;;;;;;17.17;10.02;;;;;;;9.46;100.00;97064.38;5029287;28;20046;-83
2022/10/03 04:43:20;;;;;;;15.60;9.38;;;;;;;9.50;100.00;97071.66;5042263;28;20056;-83
2022/10/03 04:45:57;;;;;;;16.65;10.25;;;;;;;9.50;100.00;97077.09;5045942;28;20049;-83
2022/10/03 04:48:33;;;;;;;18.80;10.77;;;;;;;9.53;100.00;97071.06;5043772;28;20045;-82
2022/10/03 04:51:12;;;;;;;17.77;10.52;;;;;;;9.50;100.00;97070.81;5043984;28;20051;-85
2022/10/03 04:53:47;;;;;;;17.98;11.02;;;;;;;9.50;100.00;97071.66;5041578;28;20096;-83
2022/10/03 04:56:29;;;;;;;20.88;11.02;;;;;;;9.53;100.00;97071.06;5024268;28;20054;-83
2022/10/03 04:59:06;;;;;;;15.88;9.55;;;;;;;9.59;100.00;97080.75;5024443;28;20044;-83
2022/10/03 05:01:43;;;;;;;17.08;10.43;;;;;;;9.59;100.00;97079.94;5023758;28;20049;-81
2022/10/03 05:04:30;;;;;;;15.45;9.63;;;;;;;9.54;100.00;97072.66;5042140;28;20056;-83
2022/10/03 05:07:11;;;;;;;20.02;10.60;;;;;;;9.52;100.00;97071.34;5021339;28;20041;-81
2022/10/03 05:09:48;;;;;;;15.52;9.63;;;;;;;9.54;100.00;97077.28;5049303;28;20056;-84
2022/10/03 05:12:21;;;;;;;15.45;9.70;;;;;;;9.56;100.00;97081.34;5043170;28;20046;-84
2022/10/03 05:15:02;;;;;;;14.30;9.50;;;;;;;9.56;100.00;97075.09;5044285;28;20068;-82
2022/10/03 05:17:42;;;;;;;18.90;10.63;;;;;;;9.46;100.00;97078.78;5040518;28;20675;-82
2022/10/03 05:20:24;;;;;;;17.48;10.20;;;;;;;9.46;100.00;97081.50;5036157;28;20065;-82
2022/10/03 05:23:00;;;;;;;15.77;8.90;;;;;;;9.46;100.00;97078.78;5021513;28;20058;-82
2022/10/03 05:25:40;;;;;;;20.60;10.60;;;;;;;9.43;100.00;97087.50;5022444;28;20049;-83
2022/10/03 05:28:32;;;;;;;16.25;10.63;;;;;;;9.43;100.00;97087.50;5022013;28;20048;-80
2022/10/03 05:31:05;;;;;;;16.08;9.90;;;;;;;9.41;100.00;97097.88;5023194;28;20081;-85
2022/10/03 05:33:44;;;;;;;18.90;11.40;;;;;;;9.38;100.00;97101.16;5018479;28;20049;-79
2022/10/03 05:36:28;;;;;;;18.23;10.63;;;;;;;9.32;100.00;97096.91;5022660;28;20037;-80
2022/10/03 05:39:23;;;;;;;16.05;9.32;;;;;;;9.29;100.00;97097.47;5023300;28;20046;-79
2022/10/03 05:42:00;;;;;;;14.88;9.65;;;;;;;9.31;100.00;97101.53;5015761;28;20046;-79
2022/10/03 05:44:41;;;;;;;18.08;10.25;;;;;;;9.27;100.00;97100.47;5026737;28;20095;-79
2022/10/03 05:50:29;;;;;;;17.42;10.95;;;;;;;9.25;100.00;97110.03;5034936;28;20072;-81
2022/10/03 05:53:11;;;;;;;19.55;10.48;;;;;;;9.28;100.00;97104.81;5042434;28;20047;-84
2022/10/03 05:55:48;;;;;;;22.90;10.95;;;;;;;9.27;100.00;97114.06;5028571;28;20500;-78
2022/10/03 05:59:14;;;;;;;15.10;10.30;;;;;;;9.28;100.00;97112.16;5034512;28;20076;-79
2022/10/03 06:02:01;;;;;;;18.98;11.00;;;;;;;9.27;100.00;97124.94;5023985;28;20069;-81
2022/10/03 06:04:49;;;;;;;18.67;11.38;;;;;;;9.29;100.00;97130.91;5025987;28;20037;-79
2022/10/03 06:07:23;;;;;;;17.33;10.52;;;;;;;9.34;100.00;97127.28;5035129;28;20056;-79
2022/10/03 06:10:30;;;;;;;20.85;11.02;;;;;;;9.36;100.00;97130.56;5033256;28;20049;-80
2022/10/03 06:13:14;;;;;;;18.25;10.50;;;;;;;9.30;100.00;97134.44;5031393;28;20061;-77
2022/10/03 06:16:07;;;;;;;19.48;11.98;;;;;;;9.31;100.00;97142.28;5014252;28;20045;-78
2022/10/03 06:19:05;;;;;;;18.05;11.43;;;;;;;9.37;100.00;97138.41;5018989;28;20057;-78
2022/10/03 06:22:09;;;;;;;23.65;12.90;;;;;;;9.22;100.00;97145.94;5028604;28;20051;-78
2022/10/03 06:25:07;;;;;;;26.98;12.98;;;;;;;9.32;100.00;97152.06;5030371;28;20587;-81
2022/10/03 06:28:08;;;;;;;21.25;11.88;;;;;;;9.40;100.00;97153.34;5030239;28;20045;-79
2022/10/03 06:31:06;;;;;;;22.27;12.13;;;;;;;9.52;100.00;97161.06;5029191;28;20046;-79
2022/10/03 06:34:01;;;;;;;22.00;12.95;;;;;;;9.52;100.00;97167.31;5007691;28;20390;-78
2022/10/03 06:36:54;;;;;;;20.38;11.95;;;;;;;9.42;100.00;97178.31;5029842;28;20125;-80
2022/10/03 06:40:01;;;;;;;21.98;11.40;;;;;;;9.56;100.00;97178.44;5030921;28;20054;-80
2022/10/03 06:42:55;;;;;;;20.60;12.55;;;;;;;9.37;100.00;97173.75;5018553;28;20128;-79
2022/10/03 06:45:39;;;;;;;;;;;;;;;9.15;100.00;97178.91;5035249;28;20092;-79
2022/10/03 06:48:24;;;;;;;21.88;13.82;;;;;;;9.12;100.00;97180.28;5022706;28;19940;-79
2022/10/03 06:51:00;;;;;;;25.00;13.93;;;;;;;9.02;100.00;97180.38;5028926;28;20405;-79
2022/10/03 06:53:43;;;;;;;24.42;13.98;;;;;;;9.03;100.00;97187.44;5045794;28;20043;-87
2022/10/03 06:56:45;;;;;;;30.35;15.40;;;;;;;8.88;100.00;97179.44;5016975;28;20041;-81
2022/10/03 06:59:40;;;;;;;29.02;15.30;;;;;;;8.98;100.00;97168.50;4996944;28;20050;-81
2022/10/03 07:02:40;;;;;;;29.73;14.57;;;;;;;9.11;100.00;97178.66;5009191;28;20141;-81
2022/10/03 07:05:40;;;;;;;32.20;14.25;;;;;;;9.06;100.00;97181.44;5025265;28;20144;-81
2022/10/03 07:08:46;;;;;;;30.52;15.52;;;;;;;9.03;100.00;97182.03;5032826;28;20055;-80
2022/10/03 07:11:33;;;;;;;28.67;15.15;;;;;;;9.08;100.00;97179.25;5029357;28;20045;-79
2022/10/03 07:14:32;;;;;;;27.05;15.07;;;;;;;9.11;100.00;97178.66;5038118;28;20060;-83
2022/10/03 07:17:14;;;;;;;29.90;16.80;;;;;;;9.28;100.00;97182.81;5044829;28;20132;-83
2022/10/03 07:20:07;;;;;;;30.45;16.67;;;;;;;9.57;100.00;97191.72;5044150;28;20045;-83
2022/10/03 07:23:12;;;;;;;27.60;14.98;;;;;;;9.64;100.00;97181.28;5040716;28;20045;-81
2022/10/03 07:26:12;;;;;;;22.20;12.60;;;;;;;9.68;100.00;97182.34;5040991;28;20045;-82
2022/10/03 07:29:14;;;;;;;25.98;12.82;;;;;;;9.74;100.00;97190.44;5032060;28;20045;-81
2022/10/03 07:31:53;;;;;;;22.25;13.52;;;;;;;9.78;100.00;97197.72;5034678;28;20037;-81
2022/10/03 07:34:47;;;;;;;22.73;12.50;;;;;;;9.99;100.00;97190.09;5037422;28;20088;-82
2022/10/03 07:40:43;;;;;;;20.30;12.43;;;;;;;10.16;100.00;97193.09;4980076;28;20051;-82
2022/10/03 07:43:36;;;;;;;23.27;13.68;;;;;;;10.06;100.00;97197.88;5019343;28;20046;-84
2022/10/03 07:46:30;;;;;;;25.85;13.05;;;;;;;10.18;100.00;97195.53;5042541;28;20037;-83
2022/10/03 07:49:17;;;;;;;23.15;12.73;;;;;;;10.08;100.00;97201.94;5050210;28;20045;-85
2022/10/03 07:52:01;;;;;;;19.83;11.50;;;;;;;10.30;100.00;97204.09;5026020;28;20048;-83
2022/10/03 07:54:52;;;;;;;21.00;11.80;;;;;;;10.35;100.00;97208.66;5034364;28;20042;-84
2022/10/03 07:57:51;;;;;;;27.50;12.65;;;;;;;10.24;100.00;97212.63;5034133;28;20034;-82
2022/10/03 08:00:23;;;;;;;22.00;11.27;;;;;;;10.38;100.00;97208.06;5044792;28;20477;-82
2022/10/03 08:03:34;;;;;;;21.33;12.07;;;;;;;10.46;100.00;97207.38;5024215;28;20046;-84
2022/10/03 08:06:25;;;;;;;15.93;10.82;;;;;;;10.27;100.00;97214.75;5028133;28;20467;-79
2022/10/03 08:09:42;;;;;;;25.52;12.13;;;;;;;10.31;100.00;97215.78;5034580;28;20596;-79
2022/10/03 08:12:39;;;;;;;19.83;11.73;;;;;;;10.48;100.00;97209.81;5036568;28;20050;-79
2022/10/03 08:15:11;;;;;;;21.70;12.38;;;;;;;10.59;100.00;97214.78;5038814;28;20053;-78
2022/10/03 08:17:58;;;;;;;24.08;12.88;;;;;;;10.73;100.00;97217.56;5022698;28;20062;-80
2022/10/03 08:20:51;;;;;;;23.55;12.52;;;;;;;10.73;100.00;97216.78;5019372;28;20049;-78
2022/10/03 08:23:44;;;;;;;19.17;11.82;;;;;;;10.75;100.00;97225.44;5020118;28;20057;-80
2022/10/03 08:26:17;;;;;;;;;;;;;;;10.59;100.00;97233.84;5032223;28;20057;-80
2022/10/03 08:28:53;;;;;;;20.33;10.20;;;;;;;10.58;100.00;97232.25;5036432;28;19928;-79
2022/10/03 08:32:00;;;;;;;17.58;10.65;;;;;;;10.61;100.00;97231.66;5038653;28;20412;-78
2022/10/03 08:34:55;;;;;;;19.75;11.05;;;;;;;10.67;99.30;97235.91;5039590;28;20049;-79
2022/10/03 08:37:50;;;;;;;21.08;9.65;;;;;;;10.63;98.23;97234.09;5019253;28;20050;-79
2022/10/03 08:40:58;;;;;;;24.40;11.43;;;;;;;10.82;99.20;97228.63;5016583;28;20050;-78
2022/10/03 08:43:51;;;;;;;19.08;10.00;;;;;;;10.96;98.60;97229.44;5024240;28;20046;-79
2022/10/03 08:46:31;;;;;;;;;;;;;;;10.96;96.92;97232.16;5043189;28;20049;-83
2022/10/03 08:49:13;;;;;;;19.92;10.40;;;;;;;11.02;97.45;97235.63;5050528;28;19924;-82
2022/10/03 08:51:56;;;;;;;15.73;9.27;;;;;;;11.02;97.16;97236.44;5053830;28;20055;-87
2022/10/03 08:54:49;;;;;;;12.98;8.85;;;;;;;11.14;96.42;97239.50;5053893;28;20039;-86
2022/10/03 08:57:30;;;;;;;17.27;8.75;;;;;;;11.00;94.11;97246.81;5056653;28;20551;-88
2022/10/03 09:00:16;;;;;;;19.42;9.00;;;;;;;11.03;94.83;97243.50;5056892;28;20054;-87
2022/10/03 09:03:49;;;;;;;13.63;8.70;;;;;;;11.03;95.48;97243.50;5056567;28;20063;-86
2022/10/03 09:07:00;;;;;;;24.60;9.20;;;;;;;11.21;95.03;97245.34;5053719;28;20111;-87
2022/10/03 09:10:03;;;;;;;20.38;9.82;;;;;;;11.07;94.69;97239.09;5022823;28;20034;-88
2022/10/03 09:12:57;;;;;;;17.20;8.80;;;;;;;10.85;94.16;97236.19;5031035;28;20061;-86
2022/10/03 09:15:48;;;;;;;;;;;;;;;11.02;94.38;97241.09;5033329;28;20052;-86
2022/10/03 09:18:44;;;;;;;17.05;8.68;;;;;;;10.92;94.16;97231.16;5050275;28;19921;-85
2022/10/03 09:21:39;;;;;;;15.20;8.70;;;;;;;11.11;95.05;97237.34;5051025;28;20072;-85
2022/10/03 09:24:36;;;;;;;17.17;9.10;;;;;;;11.04;95.65;97239.66;5049834;28;20050;-85
2022/10/03 09:27:31;;;;;;;15.23;9.63;;;;;;;10.82;94.86;97236.78;5051247;28;20037;-84
2022/10/03 09:30:16;;;;;;;17.30;9.45;;;;;;;10.92;94.88;97244.78;5049822;28;20433;-85
2022/10/03 09:33:10;;;;;;;18.40;9.07;;;;;;;10.84;96.18;97240.81;5051491;28;20056;-85
2022/10/03 09:36:00;;;;;;;20.63;9.27;;;;;;;11.05;95.84;97241.28;5052035;28;20042;-85
2022/10/03 09:38:59;;;;;;;15.43;9.23;;;;;;;10.97;94.84;97237.34;5050828;28;20045;-86
2022/10/03 09:42:16;;;;;;;17.17;8.65;;;;;;;11.05;94.92;97244.00;5050653;28;20112;-86
2022/10/03 09:45:10;;;;;;;15.25;8.20;;;;;;;11.06;94.05;97242.09;5050511;28;20057;-86
2022/10/03 09:48:19;;;;;;;16.58;8.10;;;;;;;10.93;92.81;97238.22;5041121;28;20056;-84
2022/10/03 09:51:35;;;;;;;13.77;7.95;;;;;;;10.86;93.27;97232.38;4978145;28;20070;-86
2022/10/03 10:20:10;;;;;;;13.10;7.10;;;;;;;11.09;94.26;97225.16;5929748;22;20059;-81
2022/10/03 10:36:20;;;;;;;12.55;7.18;;;;;;;11.21;92.42;97223.53;5844597;22;20053;-82
2022/10/03 10:42:04;;;;;;;12.27;7.75;;;;;;;11.28;94.64;97230.53;5187537;22;20041;-83
2022/10/03 12:37:42;;;;;;;8.52;3.45;;;;;;;13.29;74.74;97183.69;5467665;23;20054;-87
2022/10/03 12:40:18;;;;;;;7.15;2.88;;;;;;;13.54;71.74;97176.69;4991806;28;20138;-85
2022/10/03 12:42:52;;;;;;;8.15;3.72;;;;;;;13.92;69.51;97176.16;4980828;28;20047;-86
2022/10/03 12:45:26;;;;;;;9.00;2.47;;;;;;;14.26;68.33;97173.47;4992560;28;20031;-85
2022/10/03 12:48:12;;;;;;;8.13;2.65;;;;;;;14.01;65.34;97175.03;4987812;28;20046;-86
2022/10/03 12:50:46;;;;;;;7.97;2.58;;;;;;;13.81;67.26;97176.44;4972053;28;20042;-87
2022/10/03 12:53:27;;;;;;;7.38;2.50;;;;;;;13.78;67.87;97177.09;4990579;28;20063;-87
2022/10/03 12:56:07;;;;;;;6.80;2.45;;;;;;;13.58;67.18;97177.69;4968281;28;20039;-88
2022/10/03 12:58:50;;;;;;;7.65;2.63;;;;;;;13.62;69.51;97178.66;4998337;28;20043;-88
2022/10/03 13:01:27;;;;;;;7.28;2.78;;;;;;;13.59;70.63;97173.81;4981028;28;20046;-88
2022/10/03 13:03:56;;;;;;;9.73;3.00;;;;;;;13.76;69.27;97179.34;4984065;28;20047;-90
2022/10/03 13:06:37;;;;;;;11.18;2.90;;;;;;;13.78;73.22;97177.09;4999200;28;20051;-89
2022/10/03 13:09:31;;;;;;;8.73;3.20;;;;;;;13.99;70.45;97176.47;4981290;28;20069;-88
2022/10/03 13:12:02;;;;;;;;;;;;;;;14.19;69.38;97181.34;5015211;28;20061;-89
2022/10/03 13:14:42;;;;;;;5.53;2.65;;;;;;;14.39;68.43;97176.34;4983920;28;19932;-90
2022/10/03 13:17:21;;;;;;;9.73;3.10;;;;;;;14.01;66.85;97177.78;5012975;28;20512;-86
2022/10/03 13:19:59;;;;;;;7.43;2.40;;;;;;;14.00;67.89;97172.63;4989820;28;20081;-88
2022/10/03 13:22:38;;;;;;;5.05;2.38;;;;;;;14.10;66.28;97175.06;5036317;28;20041;-89
2022/10/03 13:25:17;;;;;;;7.30;2.15;;;;;;;14.29;64.83;97178.28;5034779;28;20077;-88
2022/10/03 13:27:50;;;;;;;4.68;1.77;;;;;;;13.94;63.44;97176.63;5008896;28;20043;-87
2022/10/03 13:30:20;;;;;;;;;;;;;;;13.93;65.00;97169.53;5002135;28;20061;-89
2022/10/03 13:32:52;;;;;;;10.25;2.20;;;;;;;14.08;66.17;97166.34;5012244;28;19922;-89
2022/10/03 13:38:46;;;;;;;7.13;1.90;;;;;;;14.60;63.61;97169.94;5009110;28;20053;-88
2022/10/03 13:41:26;;;;;;;7.20;1.90;;;;;;;14.78;62.56;97170.72;4978531;28;20115;-86
2022/10/03 13:44:01;;;;;;;5.68;1.90;;;;;;;15.18;62.91;97156.72;4995203;28;20280;-88
2022/10/03 13:46:38;;;;;;;9.80;2.22;;;;;;;15.00;60.79;97152.44;5001085;28;20034;-83
2022/10/03 13:49:17;;;;;;;7.13;2.13;;;;;;;15.14;61.18;97150.31;5012640;28;20039;-84
2022/10/03 13:51:51;;;;;;;6.88;2.10;;;;;;;14.86;60.52;97149.88;4987326;28;20089;-83
2022/10/03 13:54:28;;;;;;;10.30;1.88;;;;;;;14.98;61.99;97147.31;4952235;28;20059;-84
2022/10/03 13:57:04;;;;;;;4.22;1.70;;;;;;;15.02;59.11;97142.75;4987915;28;20115;-84
2022/10/03 13:59:55;;;;;;;5.25;1.90;;;;;;;14.30;58.16;97138.81;4983220;28;20043;-86
2022/10/03 14:02:44;;;;;;;5.78;1.75;;;;;;;13.77;61.19;97139.88;4989782;28;20366;-87
2022/10/03 14:05:30;;;;;;;4.78;1.70;;;;;;;13.70;61.65;97142.28;4959571;28;20042;-88
2022/10/03 14:08:05;;;;;;;6.93;2.00;;;;;;;13.95;63.06;97146.22;4957185;28;20110;-80
2022/10/03 14:10:55;;;;;;;7.70;1.85;;;;;;;14.22;62.92;97136.88;4986625;28;20038;-85
2022/10/03 14:13:30;;;;;;;2.80;1.48;;;;;;;14.53;57.42;97135.94;5006041;28;20081;-84
2022/10/03 14:16:01;;;;;;;4.55;1.40;;;;;;;14.53;56.24;97134.00;5003892;28;20039;-83
2022/10/03 14:18:45;;;;;;;4.93;1.73;;;;;;;14.31;55.63;97129.47;5010557;28;20058;-87
2022/10/03 14:21:36;;;;;;;3.80;1.20;;;;;;;14.45;56.33;97136.69;4990509;28;20051;-87
2022/10/03 14:24:16;;;;;;;4.53;1.35;;;;;;;14.79;56.97;97133.94;4983800;28;20047;-82
2022/10/03 14:26:52;;;;;;;5.10;1.60;;;;;;;15.09;54.83;97136.78;4961265;28;20042;-82
2022/10/03 14:29:29;;;;;;;7.00;1.70;;;;;;;15.11;53.66;97140.00;4990119;28;20058;-83
2022/10/03 14:32:01;;;;;;;5.10;1.83;;;;;;;14.98;54.63;97135.50;4983745;28;20050;-84
2022/10/03 14:34:47;;;;;;;5.30;1.52;;;;;;;15.13;53.10;97126.72;5001264;28;20077;-80
2022/10/03 14:37:27;;;;;;;5.40;1.63;;;;;;;15.37;54.23;97126.97;4997597;28;20050;-87
2022/10/03 14:40:08;;;;;;;5.35;1.73;;;;;;;15.22;53.31;97129.47;4985410;28;20101;-87
2022/10/03 14:42:49;;;;;;;3.03;1.25;;;;;;;15.01;52.78;97135.66;5010063;28;20054;-85
2022/10/03 14:45:22;;;;;;;4.43;1.45;;;;;;;15.15;54.92;97135.47;5006709;28;20050;-86
2022/10/03 14:47:51;;;;;;;3.40;1.20;;;;;;;15.15;54.36;97135.47;4987113;28;20049;-87
2022/10/03 14:50:22;;;;;;;4.97;1.60;;;;;;;15.05;55.24;97141.31;4994063;28;20038;-85
2022/10/03 14:53:00;;;;;;;8.35;1.50;;;;;;;15.40;52.44;97131.81;5025390;28;20132;-85
2022/10/03 14:55:32;;;;;;;3.50;1.30;;;;;;;15.49;53.25;97126.25;5031690;28;20137;-89
2022/10/03 14:58:04;;;;;;;4.13;1.35;;;;;;;15.39;55.01;97130.19;5016754;28;20053;-87
2022/10/03 15:00:42;;;;;;;6.30;1.45;;;;;;;14.96;55.78;97132.28;5014357;28;20097;-86
2022/10/03 15:03:38;;;;;;;5.60;1.65;;;;;;;15.03;55.81;97127.91;5031912;28;20045;-86
2022/10/03 15:06:21;;;;;;;4.38;1.33;;;;;;;14.42;56.18;97126.41;5037454;28;20030;-80
2022/10/03 15:08:52;;;;;;;7.03;1.67;;;;;;;14.11;57.82;97124.63;5037839;28;20054;-88
2022/10/03 15:11:26;;;;;;;8.27;1.70;;;;;;;13.79;58.16;97129.44;5031876;28;20113;-86
2022/10/03 15:13:56;;;;;;;4.35;1.70;;;;;;;13.77;59.05;97123.47;5027193;28;20471;-87
2022/10/03 15:16:25;;;;;;;3.90;1.60;;;;;;;13.63;59.67;97122.81;5016437;28;20046;-87
2022/10/03 15:18:55;;;;;;;3.30;1.38;;;;;;;13.62;59.12;97125.84;5004150;28;20052;-86
2022/10/03 15:21:23;;;;;;;4.20;1.55;;;;;;;13.58;59.90;97122.97;4998465;28;20057;-85
2022/10/03 15:23:55;;;;;;;7.20;1.75;;;;;;;13.52;60.29;97124.22;4987696;28;20050;-82
2022/10/03 15:26:27;;;;;;;3.63;1.20;;;;;;;13.39;60.04;97120.47;4999633;28;20122;-86
2022/10/03 15:28:59;;;;;;;4.80;1.70;;;;;;;13.27;60.57;97133.97;4986615;28;20046;-84
2022/10/03 15:34:25;;;;;;;;;;;;;;;;;;;;;
2022/10/03 15:37:16;;;;;;;;;;;;;;;;;;;;;
2022/10/03 15:39:51;;;;;;;3.55;1.67;;;;;;;13.21;60.50;97119.63;4986019;28;20034;-86
2022/10/03 15:42:33;;;;;;;4.78;1.55;;;;;;;13.29;60.89;97121.56;4998452;28;20117;-86
2022/10/03 15:45:11;;;;;;;3.78;1.27;;;;;;;13.20;60.49;97125.38;4988467;28;20060;-86